Spencer, SD (57374)

10:14 AM CDT on August 29, 2016 (GMT -0500)
Rural Canova, SD | | Change Station

Elev 1542 ft 43.81 °N, 97.48 °W | Updated 16 seconds ago

Clear
Clear
76.5 °F
Feels Like 77 °F
N
6.8
Wind Variable Wind from SSW
Gusts 10.4 mph

Today
High -- | Low -- °F
--% Chance of Precip.
Yesterday
High -- | Low -- °F
Precip. -- in
Pressure 30.10 in
Visibility 10.0 miles
Clouds Clear
Heat Index 77 °F
Dew Point 72 °F
Humidity 85%
Rainfall 0.00 in
Snow Depth Not available.
6:51 AM 8:10 PM
Waning Crescent, 8% visible
METAR KMHE 291453Z AUTO 22004KT 10SM CLR 25/21 A3013 RMK AO2 SLP192 T02500206 51012
Pressure 30.10 in
Visibility 10.0 miles
Clouds Clear
Heat Index 77 °F
Dew Point 72 °F
Humidity 85%
Rainfall 0.00 in
Snow Depth Not available.
6:51 AM 8:10 PM
Waning Crescent, 8% visible
METAR KMHE 291453Z AUTO 22004KT 10SM CLR 25/21 A3013 RMK AO2 SLP192 T02500206 51012

10-Day Weather Forecast

Almanac

Astronomy

Aug. 29, 2016 Rise Set
Actual Time
Civil Twilight
Nautical Twilight
Astronomical Twilight
Moon
Length of Visible Light
Length of Day
Tomorrow will be .
, % of the Moon is Illuminated

Today's Extremes

State Highs State Lows

Community

WunderPhotos

Upload Photos

1,935,841 photos uploaded!

WunderBlog® & News

Nearby

Air Quality

  Air Quality AQ Index Pollutant
Not available.

Snow Depth

Station Depth Elevation

Earthquake Activity

City Distance Mag. Time & Date
Minimum magnitude displayed is 2.5.

Coastal Water Temperatures

Place Temperature

Stations

Nearby Weather Stations

Station Location Temp. Windchill Dew Point Humidity Wind Precip. Elev Updated Type
                   

Watches & Warnings

There are currently no watches in effect.